createdAt,value
2023-05-24T00:01:26.825Z,13.64
2023-05-24T00:03:59.233Z,13.57
2023-05-24T00:06:28.152Z,13.49
2023-05-24T00:08:56.185Z,13.39
2023-05-24T00:11:25.543Z,13.30
2023-05-24T00:13:53.544Z,13.24
2023-05-24T00:16:21.642Z,13.20
2023-05-24T00:18:49.669Z,13.08
2023-05-24T00:21:17.868Z,13.07
2023-05-24T00:23:45.838Z,12.99
2023-05-24T00:26:13.839Z,12.96
2023-05-24T00:28:43.199Z,12.93
2023-05-24T00:31:11.085Z,12.87
2023-05-24T00:33:38.973Z,12.83
2023-05-24T00:36:07.274Z,12.75
2023-05-24T00:38:35.243Z,12.74
2023-05-24T00:41:03.250Z,12.64
2023-05-24T00:43:31.163Z,12.64
2023-05-24T00:46:20.399Z,12.61
2023-05-24T00:48:49.544Z,12.58
2023-05-24T00:51:17.925Z,12.55
2023-05-24T00:53:47.416Z,12.40
2023-05-24T00:56:16.379Z,12.46
2023-05-24T00:58:45.084Z,12.39
2023-05-24T01:01:14.706Z,12.25
2023-05-24T01:03:43.525Z,12.30
2023-05-24T01:06:11.693Z,12.23
2023-05-24T01:09:08.319Z,12.16
2023-05-24T01:11:46.149Z,12.10
2023-05-24T01:14:22.424Z,12.10
2023-05-24T01:16:56.596Z,12.15
2023-05-24T01:19:50.670Z,12.03
2023-05-24T01:22:57.063Z,12.03
2023-05-24T01:25:43.032Z,12.10
2023-05-24T01:28:13.651Z,11.94
2023-05-24T01:30:42.417Z,11.92
2023-05-24T01:33:10.951Z,11.92
2023-05-24T01:35:40.550Z,11.87
2023-05-24T01:38:09.140Z,11.80
2023-05-24T01:40:39.125Z,11.81
2023-05-24T01:43:16.686Z,11.84
2023-05-24T01:45:54.387Z,11.81
2023-05-24T01:48:33.014Z,11.82
2023-05-24T01:51:02.406Z,11.78
2023-05-24T01:53:34.470Z,11.72
2023-05-24T01:56:06.077Z,11.66
2023-05-24T01:58:37.536Z,11.66
2023-05-24T02:01:06.492Z,11.70
2023-05-24T02:03:35.124Z,11.84
2023-05-24T02:06:03.587Z,11.87
2023-05-24T02:08:31.494Z,12.02
2023-05-24T02:10:59.494Z,11.98
2023-05-24T02:13:27.446Z,12.01
2023-05-24T02:15:56.749Z,12.02
2023-05-24T02:18:24.643Z,11.96
2023-05-24T02:20:52.631Z,11.76
2023-05-24T02:23:20.827Z,11.69
2023-05-24T02:25:48.887Z,11.75
2023-05-24T02:28:16.878Z,11.70
2023-05-24T02:30:45.358Z,11.72
2023-05-24T02:33:14.864Z,11.69
2023-05-24T02:35:42.835Z,11.67
2023-05-24T02:38:10.775Z,11.63
2023-05-24T02:40:38.765Z,11.67
2023-05-24T02:43:06.692Z,11.61
2023-05-24T02:45:34.701Z,11.58
2023-05-24T02:48:02.711Z,11.61
2023-05-24T02:50:32.885Z,11.67
2023-05-24T02:53:00.848Z,11.67
2023-05-24T02:55:29.214Z,11.67
2023-05-24T02:57:57.455Z,11.54
2023-05-24T03:00:25.471Z,11.47
2023-05-24T03:02:53.555Z,11.44
2023-05-24T03:05:21.708Z,11.48
2023-05-24T03:07:51.036Z,11.55
2023-05-24T03:10:19.150Z,11.58
2023-05-24T03:12:47.187Z,11.61
2023-05-24T03:15:15.114Z,11.55
2023-05-24T03:17:43.087Z,11.54
2023-05-24T03:20:11.745Z,11.53
2023-05-24T03:22:40.069Z,11.29
2023-05-24T03:25:10.392Z,11.58
2023-05-24T03:27:38.303Z,11.49
2023-05-24T03:30:07.242Z,11.53
2023-05-24T03:32:35.214Z,11.55
2023-05-24T03:35:03.226Z,11.62
2023-05-24T03:37:31.145Z,11.66
2023-05-24T03:39:59.056Z,11.70
2023-05-24T03:42:28.389Z,11.75
2023-05-24T03:44:56.296Z,11.76
2023-05-24T03:47:24.332Z,11.87
2023-05-24T03:49:52.362Z,11.85
2023-05-24T03:52:20.338Z,11.77
2023-05-24T03:54:49.316Z,11.76
2023-05-24T03:57:17.300Z,11.83
2023-05-24T03:59:46.692Z,11.70
2023-05-24T04:02:14.788Z,11.89
2023-05-24T04:04:42.741Z,11.94
2023-05-24T04:07:11.949Z,11.92
2023-05-24T04:09:40.386Z,12.01
2023-05-24T04:12:08.441Z,11.99
2023-05-24T04:14:36.504Z,12.04
2023-05-24T04:17:07.887Z,12.15
2023-05-24T04:19:35.977Z,12.20
2023-05-24T04:22:03.920Z,12.24
2023-05-24T04:24:31.899Z,12.27
2023-05-24T04:26:59.907Z,12.30
2023-05-24T04:29:27.867Z,12.34
2023-05-24T04:31:56.310Z,12.45
2023-05-24T04:34:25.624Z,12.39
2023-05-24T04:36:53.672Z,12.51
2023-05-24T04:39:21.751Z,12.69
2023-05-24T04:41:51.141Z,12.61
2023-05-24T04:44:19.097Z,12.71
2023-05-24T04:46:47.107Z,12.78
2023-05-24T04:49:15.134Z,12.80
2023-05-24T04:51:44.534Z,12.91
2023-05-24T04:54:12.554Z,12.95
2023-05-24T04:56:40.560Z,13.11
2023-05-24T04:59:09.681Z,13.21
2023-05-24T05:01:37.838Z,13.29
2023-05-24T05:04:05.930Z,13.43
2023-05-24T05:06:38.497Z,13.53
2023-05-24T05:09:09.592Z,13.53
2023-05-24T05:11:37.992Z,13.78
2023-05-24T05:14:06.306Z,13.81
2023-05-24T05:16:34.420Z,13.92
2023-05-24T05:19:04.610Z,13.92
2023-05-24T05:21:33.957Z,14.06
2023-05-24T05:24:02.225Z,14.03
2023-05-24T05:26:31.635Z,14.06
2023-05-24T05:29:00.052Z,14.13
2023-05-24T05:31:28.043Z,14.19
2023-05-24T05:33:55.991Z,14.21
2023-05-24T05:36:23.968Z,14.28
2023-05-24T05:38:52.042Z,14.30
2023-05-24T05:41:20.148Z,14.36
2023-05-24T05:43:49.477Z,14.39
2023-05-24T05:46:17.584Z,14.47
2023-05-24T05:48:46.476Z,14.65
2023-05-24T05:51:14.817Z,14.73
2023-05-24T05:53:42.709Z,14.85
2023-05-24T05:56:10.709Z,14.88
2023-05-24T05:58:39.013Z,14.99
2023-05-24T06:01:08.361Z,15.08
2023-05-24T06:03:36.722Z,15.18
2023-05-24T06:06:04.924Z,15.26
2023-05-24T06:08:35.324Z,15.40
2023-05-24T06:11:03.499Z,15.51
2023-05-24T06:13:33.026Z,15.59
2023-05-24T06:16:01.451Z,15.58
2023-05-24T06:18:32.681Z,15.65
2023-05-24T06:21:00.888Z,15.78
2023-05-24T06:23:28.821Z,15.85
2023-05-24T06:25:56.791Z,15.94
2023-05-24T06:28:24.714Z,16.09
2023-05-24T06:30:52.813Z,16.17
2023-05-24T06:33:20.889Z,16.26
2023-05-24T06:35:50.243Z,16.40
2023-05-24T06:38:18.762Z,16.43
2023-05-24T06:40:46.699Z,16.43
2023-05-24T06:43:15.510Z,16.50
2023-05-24T06:45:43.550Z,16.54
2023-05-24T06:48:11.627Z,16.51
2023-05-24T06:50:42.354Z,16.58
2023-05-24T06:53:12.236Z,16.55
2023-05-24T06:55:40.225Z,16.77
2023-05-24T06:58:08.214Z,16.82
2023-05-24T07:00:36.137Z,17.04
2023-05-24T07:03:04.728Z,17.17
2023-05-24T07:05:32.814Z,17.27
2023-05-24T07:08:00.768Z,17.32
2023-05-24T07:10:30.311Z,17.48
2023-05-24T07:12:58.277Z,17.55
2023-05-24T07:15:26.241Z,17.68
2023-05-24T07:17:54.947Z,17.81
2023-05-24T07:20:22.995Z,17.84
2023-05-24T07:22:52.085Z,17.98
2023-05-24T07:25:20.330Z,18.09
2023-05-24T07:27:49.659Z,18.18
2023-05-24T07:30:30.957Z,18.23
2023-05-24T07:33:00.528Z,18.39
2023-05-24T07:35:29.417Z,18.45
2023-05-24T07:37:57.513Z,18.55
2023-05-24T07:40:25.559Z,18.61
2023-05-24T07:42:54.897Z,18.72
2023-05-24T07:45:23.065Z,18.72
2023-05-24T07:47:51.052Z,18.76
2023-05-24T07:50:19.860Z,18.89
2023-05-24T07:52:48.746Z,18.92
2023-05-24T07:55:16.759Z,19.11
2023-05-24T07:57:44.686Z,19.22
2023-05-24T08:00:15.922Z,19.26
2023-05-24T08:02:46.654Z,19.52
2023-05-24T08:05:15.247Z,19.64
2023-05-24T08:07:43.256Z,19.69
2023-05-24T08:10:12.740Z,19.54
2023-05-24T08:12:40.902Z,19.90
2023-05-24T08:15:09.835Z,20.01
2023-05-24T08:17:39.803Z,20.13
2023-05-24T08:20:09.863Z,20.24
2023-05-24T08:22:38.360Z,20.21
2023-05-24T08:25:07.445Z,20.53
2023-05-24T08:27:35.419Z,20.60
2023-05-24T08:30:04.397Z,20.64
2023-05-24T08:35:18.536Z,20.71
2023-05-24T08:37:49.465Z,20.92
2023-05-24T08:40:18.296Z,20.99
2023-05-24T08:42:49.319Z,21.28
2023-05-24T08:45:19.558Z,21.53
2023-05-24T08:47:48.799Z,21.45
2023-05-24T08:50:19.306Z,21.53
2023-05-24T08:52:47.469Z,21.70
2023-05-24T08:55:16.722Z,21.91
2023-05-24T08:57:46.649Z,21.98
2023-05-24T09:00:15.757Z,22.01
2023-05-24T09:02:45.266Z,22.04
2023-05-24T09:05:17.102Z,22.03
2023-05-24T09:07:47.545Z,21.94
2023-05-24T09:10:16.347Z,22.12
2023-05-24T09:12:47.187Z,22.27
2023-05-24T09:15:15.430Z,22.34
2023-05-24T09:17:44.025Z,22.47
2023-05-24T09:20:12.707Z,22.72
2023-05-24T09:22:45.583Z,22.73
2023-05-24T09:25:16.227Z,22.88
2023-05-24T09:27:47.490Z,22.96
2023-05-24T09:30:17.190Z,23.03
2023-05-24T09:32:57.318Z,22.84
2023-05-24T09:35:26.892Z,23.00
2023-05-24T09:38:00.111Z,23.08
2023-05-24T09:40:30.287Z,23.07
2023-05-24T09:43:06.236Z,23.28
2023-05-24T09:45:34.427Z,23.24
2023-05-24T09:48:05.169Z,23.40
2023-05-24T09:50:33.604Z,23.56
2023-05-24T09:53:03.774Z,23.54
2023-05-24T09:55:37.848Z,23.79
2023-05-24T09:58:08.389Z,23.92
2023-05-24T10:00:40.084Z,23.64
2023-05-24T10:03:11.213Z,23.91
2023-05-24T10:05:43.026Z,23.98
2023-05-24T10:08:11.872Z,23.87
2023-05-24T10:10:43.237Z,23.74
2023-05-24T10:13:11.738Z,23.84
2023-05-24T10:15:40.173Z,23.83
2023-05-24T10:18:12.241Z,23.75
2023-05-24T10:20:42.561Z,23.94
2023-05-24T10:23:11.661Z,24.06
2023-05-24T10:25:46.990Z,23.98
2023-05-24T10:28:17.571Z,23.97
2023-05-24T10:30:54.364Z,24.02
2023-05-24T10:33:24.404Z,24.05
2023-05-24T10:35:54.026Z,24.04
2023-05-24T10:38:25.051Z,24.31
2023-05-24T10:41:04.664Z,24.44
2023-05-24T10:43:40.709Z,24.27
2023-05-24T10:46:11.509Z,24.38
2023-05-24T10:48:41.689Z,24.78
2023-05-24T10:51:38.486Z,25.16
2023-05-24T10:54:18.356Z,25.65
2023-05-24T10:56:50.798Z,25.62
2023-05-24T10:59:29.805Z,25.90
2023-05-24T11:01:59.524Z,26.30
2023-05-24T11:04:30.820Z,26.63
2023-05-24T11:07:03.288Z,26.87
2023-05-24T11:09:32.266Z,27.37
2023-05-24T11:12:07.460Z,27.97
2023-05-24T11:14:39.525Z,28.59
2023-05-24T11:17:08.662Z,28.96
2023-05-24T11:19:38.730Z,29.29
2023-05-24T11:22:09.403Z,29.42
2023-05-24T11:24:38.370Z,29.67
2023-05-24T11:27:08.843Z,29.65
2023-05-24T11:29:42.655Z,29.71
2023-05-24T11:32:10.969Z,29.93
2023-05-24T11:34:40.004Z,30.00
2023-05-24T11:37:08.330Z,29.64
2023-05-24T11:39:37.984Z,29.74
2023-05-24T11:42:09.825Z,29.71
2023-05-24T11:44:39.426Z,29.85
2023-05-24T11:47:08.703Z,30.03
2023-05-24T11:49:37.051Z,30.07
2023-05-24T11:52:05.084Z,30.52
2023-05-24T11:54:35.092Z,30.18
2023-05-24T11:57:03.602Z,30.36
2023-05-24T11:59:33.276Z,30.21
2023-05-24T12:02:02.768Z,30.46
2023-05-24T12:04:32.281Z,30.67
2023-05-24T12:07:01.315Z,30.08
2023-05-24T12:09:29.725Z,30.39
2023-05-24T12:11:59.087Z,30.27
2023-05-24T12:14:31.178Z,29.54
2023-05-24T12:17:01.996Z,29.49
2023-05-24T12:19:34.796Z,29.74
2023-05-24T12:22:06.408Z,29.96
2023-05-24T12:24:35.136Z,30.11
2023-05-24T12:27:08.071Z,30.76
2023-05-24T12:29:37.890Z,30.25
2023-05-24T12:32:12.822Z,30.64
2023-05-24T12:34:45.566Z,30.73
2023-05-24T12:37:14.308Z,31.29
2023-05-24T12:39:43.962Z,31.71
2023-05-24T12:42:13.448Z,31.99
2023-05-24T12:44:42.494Z,31.69
2023-05-24T12:47:12.230Z,32.23
2023-05-24T12:49:40.386Z,32.01
2023-05-24T12:52:08.358Z,32.15
2023-05-24T12:54:36.424Z,32.22
2023-05-24T12:57:04.481Z,31.90
2023-05-24T12:59:32.523Z,31.63
2023-05-24T13:02:00.795Z,31.81
2023-05-24T13:04:31.893Z,32.17
2023-05-24T13:07:00.397Z,31.87
2023-05-24T13:09:28.668Z,32.20
2023-05-24T13:11:56.787Z,31.58
2023-05-24T13:14:24.934Z,30.36
2023-05-24T13:16:53.208Z,30.07
2023-05-24T13:19:21.796Z,29.49
2023-05-24T13:21:51.488Z,29.24
2023-05-24T13:24:20.278Z,29.06
2023-05-24T13:26:49.661Z,28.28
2023-05-24T13:29:34.171Z,27.92
2023-05-24T13:32:07.775Z,27.81
2023-05-24T13:34:35.995Z,27.46
2023-05-24T13:37:05.519Z,27.25
2023-05-24T13:39:33.813Z,27.20
2023-05-24T13:42:01.971Z,26.72
2023-05-24T13:44:30.755Z,26.39
2023-05-24T13:46:59.853Z,25.95
2023-05-24T13:49:27.980Z,25.81
2023-05-24T13:51:59.100Z,25.43
2023-05-24T13:54:28.642Z,25.22
2023-05-24T13:56:58.036Z,24.94
2023-05-24T13:59:27.156Z,24.76
2023-05-24T14:01:55.396Z,24.57
2023-05-24T14:04:23.547Z,24.48
2023-05-24T14:06:51.586Z,24.34
2023-05-24T14:09:21.358Z,24.45
2023-05-24T14:11:51.017Z,24.40
2023-05-24T14:16:52.232Z,24.62
2023-05-24T14:19:21.149Z,24.64
2023-05-24T14:21:49.215Z,24.70
2023-05-24T14:24:17.236Z,24.38
2023-05-24T14:26:47.634Z,24.25
2023-05-24T14:29:16.895Z,23.92
2023-05-24T14:31:47.380Z,23.83
2023-05-24T14:34:15.367Z,23.59
2023-05-24T14:36:43.490Z,23.59
2023-05-24T14:39:11.582Z,23.87
2023-05-24T14:41:39.842Z,23.77
2023-05-24T14:44:07.928Z,23.64
2023-05-24T14:46:37.401Z,23.61
2023-05-24T14:49:05.803Z,23.45
2023-05-24T14:51:33.798Z,23.47
2023-05-24T14:54:01.736Z,23.29
2023-05-24T14:56:29.791Z,23.44
2023-05-24T14:58:58.721Z,23.71
2023-05-24T15:01:27.611Z,24.25
2023-05-24T15:03:57.024Z,24.75
2023-05-24T15:06:25.076Z,25.24
2023-05-24T15:08:53.114Z,25.73
2023-05-24T15:11:21.245Z,26.09
2023-05-24T15:13:49.212Z,26.13
2023-05-24T15:16:17.394Z,25.52
2023-05-24T15:18:45.349Z,24.62
2023-05-24T15:21:14.891Z,24.36
2023-05-24T15:23:42.812Z,24.04
2023-05-24T15:26:14.081Z,23.79
2023-05-24T15:28:42.056Z,24.08
2023-05-24T15:31:11.285Z,24.05
2023-05-24T15:33:39.524Z,24.13
2023-05-24T15:36:08.505Z,24.32
2023-05-24T15:38:38.796Z,24.73
2023-05-24T15:41:07.031Z,25.07
2023-05-24T15:43:35.350Z,25.46
2023-05-24T15:46:03.554Z,25.70
2023-05-24T15:48:31.514Z,26.22
2023-05-24T15:51:53.615Z,26.53
2023-05-24T15:53:48.888Z,27.03
2023-05-24T15:56:16.978Z,27.67
2023-05-24T15:58:45.911Z,27.71
2023-05-24T16:01:13.918Z,27.54
2023-05-24T16:03:42.200Z,27.30
2023-05-24T16:06:10.194Z,26.84
2023-05-24T16:08:38.545Z,26.75
2023-05-24T16:11:11.185Z,26.20
2023-05-24T16:13:39.268Z,26.09
2023-05-24T16:16:07.380Z,25.63
2023-05-24T16:18:37.233Z,25.44
2023-05-24T16:21:05.484Z,25.46
2023-05-24T16:23:33.582Z,24.73
2023-05-24T16:26:04.129Z,24.33
2023-05-24T16:28:33.513Z,24.04
2023-05-24T16:31:03.262Z,23.80
2023-05-24T16:33:31.431Z,23.66
2023-05-24T16:36:03.433Z,23.91
2023-05-24T16:38:31.762Z,24.11
2023-05-24T16:40:59.813Z,24.15
2023-05-24T16:43:27.848Z,24.20
2023-05-24T16:45:57.397Z,24.11
2023-05-24T16:48:28.718Z,24.11
2023-05-24T16:50:57.252Z,23.91
2023-05-24T16:53:26.294Z,23.90
2023-05-24T16:55:55.852Z,23.83
2023-05-24T16:58:25.501Z,23.69
2023-05-24T17:00:54.533Z,23.66
2023-05-24T17:03:28.725Z,23.48
2023-05-24T17:06:01.208Z,23.58
2023-05-24T17:08:31.332Z,23.54
2023-05-24T17:10:59.403Z,23.49
2023-05-24T17:13:28.660Z,23.44
2023-05-24T17:15:57.920Z,23.56
2023-05-24T17:18:30.416Z,23.52
2023-05-24T17:20:59.859Z,23.40
2023-05-24T17:23:28.871Z,23.37
2023-05-24T17:25:57.019Z,23.13
2023-05-24T17:28:27.801Z,23.07
2023-05-24T17:30:56.144Z,23.02
2023-05-24T17:33:25.266Z,22.90
2023-05-24T17:35:56.453Z,22.82
2023-05-24T17:38:26.351Z,22.88
2023-05-24T17:40:57.148Z,22.78
2023-05-24T17:43:28.819Z,22.60
2023-05-24T17:46:03.538Z,22.47
2023-05-24T17:48:32.406Z,22.37
2023-05-24T17:51:02.966Z,22.14
2023-05-24T17:53:34.645Z,22.15
2023-05-24T17:56:03.392Z,22.11
2023-05-24T17:58:36.545Z,22.08
2023-05-24T18:01:06.224Z,22.05
2023-05-24T18:03:36.602Z,21.91
2023-05-24T18:06:07.241Z,21.80
2023-05-24T18:08:38.177Z,21.81
2023-05-24T18:11:10.267Z,21.67
2023-05-24T18:13:40.181Z,21.64
2023-05-24T18:16:08.438Z,21.51
2023-05-24T18:18:37.794Z,21.47
2023-05-24T18:21:07.649Z,21.48
2023-05-24T18:23:37.789Z,21.50
2023-05-24T18:26:12.364Z,21.54
2023-05-24T18:28:42.362Z,21.52
2023-05-24T18:31:11.917Z,21.64
2023-05-24T18:33:44.230Z,21.59
2023-05-24T18:36:13.768Z,21.53
2023-05-24T18:38:43.256Z,21.48
2023-05-24T18:41:12.265Z,21.45
2023-05-24T18:43:42.839Z,21.32
2023-05-24T18:46:14.884Z,21.31
2023-05-24T18:48:43.393Z,21.32
2023-05-24T18:51:17.392Z,21.33
2023-05-24T18:53:45.830Z,21.36
2023-05-24T18:56:14.988Z,21.33
2023-05-24T18:58:45.513Z,21.37
2023-05-24T19:01:16.359Z,21.38
2023-05-24T19:03:44.909Z,21.36
2023-05-24T19:06:19.396Z,21.30
2023-05-24T19:08:47.429Z,21.31
2023-05-24T19:11:15.392Z,21.26
2023-05-24T19:13:43.439Z,21.17
2023-05-24T19:16:17.512Z,21.14
2023-05-24T19:18:46.053Z,20.97
2023-05-24T19:21:15.532Z,21.01
2023-05-24T19:23:43.493Z,21.06
2023-05-24T19:26:11.639Z,21.02
2023-05-24T19:28:41.667Z,21.08
2023-05-24T19:31:09.555Z,21.07
2023-05-24T19:33:45.617Z,21.06
2023-05-24T19:36:27.050Z,20.98
2023-05-24T19:38:55.091Z,20.93
2023-05-24T19:41:23.016Z,20.97
2023-05-24T19:43:51.158Z,20.85
2023-05-24T19:46:19.393Z,20.61
2023-05-24T19:48:47.413Z,20.52
2023-05-24T19:51:18.284Z,20.21
2023-05-24T19:53:47.760Z,20.11
2023-05-24T19:56:15.814Z,19.98
2023-05-24T19:58:44.098Z,19.83
2023-05-24T20:01:12.158Z,19.62
2023-05-24T20:03:40.339Z,19.70
2023-05-24T20:06:08.562Z,19.59
2023-05-24T20:08:36.722Z,19.50
2023-05-24T20:11:06.331Z,19.48
2023-05-24T20:13:34.259Z,19.48
2023-05-24T20:16:02.537Z,19.33
2023-05-24T20:18:30.569Z,19.32
2023-05-24T20:20:58.705Z,19.22
2023-05-24T20:23:27.600Z,19.02
2023-05-24T20:25:56.296Z,19.05
2023-05-24T20:28:29.988Z,19.00
2023-05-24T20:30:59.109Z,19.03
2023-05-24T20:33:27.198Z,18.89
2023-05-24T20:35:55.716Z,18.84
2023-05-24T20:38:24.852Z,18.81
2023-05-24T20:40:52.866Z,18.87
2023-05-24T20:43:20.971Z,18.77
2023-05-24T20:45:50.676Z,18.68
2023-05-24T20:48:19.225Z,18.50
2023-05-24T20:50:47.212Z,18.56
2023-05-24T20:53:15.214Z,18.48
2023-05-24T20:55:43.333Z,18.41
2023-05-24T20:58:11.581Z,18.45
2023-05-24T21:00:40.179Z,18.26
2023-05-24T21:03:10.247Z,18.08
2023-05-24T21:05:40.365Z,18.02
2023-05-24T21:08:08.387Z,17.91
2023-05-24T21:10:38.018Z,17.92
2023-05-24T21:13:05.999Z,17.80
2023-05-24T21:15:33.913Z,17.80
2023-05-24T21:18:01.889Z,17.72
2023-05-24T21:20:31.403Z,17.73
2023-05-24T21:22:59.399Z,17.73
2023-05-24T21:25:27.320Z,17.52
2023-05-24T21:28:15.834Z,17.58
2023-05-24T21:30:44.180Z,17.52
2023-05-24T21:33:12.309Z,17.45
2023-05-24T21:35:41.935Z,17.32
2023-05-24T21:38:10.102Z,17.22
2023-05-24T21:40:38.103Z,17.14
2023-05-24T21:43:06.659Z,17.20
2023-05-24T21:45:34.616Z,17.21
2023-05-24T21:48:02.615Z,17.22
2023-05-24T21:50:31.170Z,17.22
2023-05-24T21:53:00.585Z,17.12
2023-05-24T21:55:30.034Z,17.09
2023-05-24T21:57:58.141Z,17.15
2023-05-24T22:00:27.009Z,17.11
2023-05-24T22:02:55.044Z,17.06
2023-05-24T22:05:23.770Z,17.02
2023-05-24T22:07:52.471Z,17.08
2023-05-24T22:10:21.913Z,16.90
2023-05-24T22:12:50.101Z,17.08
2023-05-24T22:15:18.520Z,17.05
2023-05-24T22:17:48.414Z,16.89
2023-05-24T22:20:20.449Z,16.90
2023-05-24T22:22:53.352Z,16.99
2023-05-24T22:25:22.845Z,17.01
2023-05-24T22:27:51.651Z,16.80
2023-05-24T22:30:20.097Z,16.92
2023-05-24T22:32:49.349Z,16.97
2023-05-24T22:35:17.529Z,16.90
2023-05-24T22:37:45.503Z,16.84
2023-05-24T22:40:14.542Z,16.81
2023-05-24T22:42:44.010Z,16.78
2023-05-24T22:45:13.944Z,16.66
2023-05-24T22:47:42.007Z,16.62
2023-05-24T22:50:10.604Z,16.63
2023-05-24T22:52:42.375Z,16.37
2023-05-24T22:55:10.909Z,16.44
2023-05-24T22:57:39.019Z,16.56
2023-05-24T23:00:09.975Z,16.64
2023-05-24T23:02:39.407Z,16.72
2023-05-24T23:05:08.055Z,16.34
2023-05-24T23:07:37.524Z,16.21
2023-05-24T23:10:05.983Z,16.44
2023-05-24T23:12:34.422Z,16.47
2023-05-24T23:15:04.804Z,16.59
2023-05-24T23:17:34.642Z,16.63
2023-05-24T23:20:05.255Z,16.71
2023-05-24T23:22:33.225Z,16.80
2023-05-24T23:25:02.583Z,16.83
2023-05-24T23:27:30.822Z,16.73
2023-05-24T23:29:59.773Z,16.73
2023-05-24T23:32:28.379Z,16.71
2023-05-24T23:34:57.920Z,16.65
2023-05-24T23:37:26.677Z,16.65
2023-05-24T23:39:54.567Z,16.63
2023-05-24T23:42:22.841Z,16.54
2023-05-24T23:44:50.908Z,16.40
2023-05-24T23:47:19.174Z,16.42
2023-05-24T23:49:47.121Z,16.32
2023-05-24T23:52:18.071Z,16.30
2023-05-24T23:54:46.834Z,16.26
2023-05-24T23:57:15.436Z,16.32
2023-05-24T23:59:43.511Z,16.29
